createdAt,value
2023-05-19T00:03:31.621Z,12.43
2023-05-19T00:08:37.465Z,12.27
2023-05-19T00:13:48.575Z,12.20
2023-05-19T00:18:54.685Z,12.25
2023-05-19T00:24:00.010Z,12.63
2023-05-19T00:29:07.991Z,12.63
2023-05-19T00:34:13.125Z,13.05
2023-05-19T00:39:18.212Z,12.57
2023-05-19T00:44:26.009Z,14.20
2023-05-19T00:49:31.299Z,16.20
2023-05-19T00:54:36.948Z,14.38
2023-05-19T00:59:44.825Z,13.93
2023-05-19T01:04:49.950Z,13.68
2023-05-19T01:09:55.361Z,14.65
2023-05-19T01:15:03.481Z,15.18
2023-05-19T01:20:14.133Z,15.38
2023-05-19T01:25:43.376Z,16.17
2023-05-19T01:30:52.364Z,13.95
2023-05-19T01:35:59.009Z,17.15
2023-05-19T01:41:04.461Z,18.42
2023-05-19T01:46:12.502Z,15.43
2023-05-19T01:51:17.797Z,17.52
2023-05-19T01:56:40.354Z,17.60
2023-05-19T02:01:55.144Z,15.25
2023-05-19T02:07:04.930Z,13.73
2023-05-19T02:12:15.236Z,14.15
2023-05-19T02:17:24.213Z,13.65
2023-05-19T02:22:29.393Z,13.63
2023-05-19T02:27:34.522Z,12.95
2023-05-19T02:32:42.448Z,13.15
2023-05-19T02:37:47.831Z,11.75
2023-05-19T02:42:53.039Z,12.80
2023-05-19T02:48:01.460Z,11.57
2023-05-19T02:53:07.825Z,13.45
2023-05-19T02:58:13.211Z,12.50
2023-05-19T03:03:21.032Z,12.07
2023-05-19T03:08:26.285Z,11.98
2023-05-19T03:13:32.204Z,11.95
2023-05-19T03:18:39.965Z,10.05
2023-05-19T03:23:45.170Z,11.05
2023-05-19T03:28:50.274Z,10.93
2023-05-19T03:33:58.148Z,11.30
2023-05-19T03:39:03.193Z,10.27
2023-05-19T03:44:08.679Z,9.65
2023-05-19T03:49:16.402Z,10.60
2023-05-19T03:54:22.814Z,10.85
2023-05-19T03:59:28.347Z,10.02
2023-05-19T04:04:37.688Z,9.77
2023-05-19T04:09:42.893Z,9.33
2023-05-19T04:14:48.283Z,9.07
2023-05-19T04:19:56.254Z,8.27
2023-05-19T04:25:02.067Z,8.45
2023-05-19T04:30:08.350Z,9.55
2023-05-19T04:35:17.951Z,8.63
2023-05-19T04:40:24.182Z,8.00
2023-05-19T04:45:29.338Z,7.38
2023-05-19T04:50:39.097Z,7.55
2023-05-19T04:55:45.707Z,7.80
2023-05-19T05:00:51.085Z,7.47
2023-05-19T05:05:58.942Z,7.65
2023-05-19T05:11:05.042Z,6.55
2023-05-19T05:16:11.711Z,6.90
2023-05-19T05:21:20.254Z,6.15
2023-05-19T05:26:26.769Z,6.75
2023-05-19T05:31:32.023Z,6.65
2023-05-19T05:36:39.896Z,6.65
2023-05-19T05:41:45.149Z,5.68
2023-05-19T05:46:51.083Z,6.25
2023-05-19T05:52:05.567Z,5.78
2023-05-19T05:57:13.289Z,14.82
2023-05-19T06:02:18.495Z,5.38
2023-05-19T06:07:27.652Z,6.35
2023-05-19T06:12:34.098Z,6.17
2023-05-19T06:17:39.385Z,6.80
2023-05-19T06:22:49.640Z,6.20
2023-05-19T06:27:54.913Z,5.50
2023-05-19T06:33:00.309Z,4.93
2023-05-19T06:38:08.107Z,6.07
2023-05-19T06:43:13.239Z,5.75
2023-05-19T06:48:18.417Z,4.85
2023-05-19T06:53:26.241Z,5.50
2023-05-19T06:58:31.563Z,5.20
2023-05-19T07:03:36.855Z,6.88
2023-05-19T07:08:44.750Z,5.30
2023-05-19T07:13:50.534Z,5.30
2023-05-19T07:18:55.770Z,5.40
2023-05-19T07:24:03.557Z,5.40
2023-05-19T07:29:08.782Z,5.35
2023-05-19T07:34:13.890Z,5.45
2023-05-19T07:39:21.732Z,5.25
2023-05-19T07:44:27.492Z,5.45
2023-05-19T07:49:32.799Z,4.72
2023-05-19T07:54:40.724Z,5.00
2023-05-19T07:59:45.921Z,4.97
2023-05-19T08:04:51.172Z,4.85
2023-05-19T08:09:58.965Z,5.30
2023-05-19T08:15:04.243Z,4.95
2023-05-19T08:20:12.902Z,5.35
2023-05-19T08:25:20.922Z,5.07
2023-05-19T08:30:26.112Z,4.18
2023-05-19T08:35:31.381Z,4.47
2023-05-19T08:40:41.237Z,5.00
2023-05-19T08:45:48.579Z,4.13
2023-05-19T08:51:00.755Z,4.65
2023-05-19T08:56:13.196Z,5.10
2023-05-19T09:01:19.183Z,4.97
2023-05-19T09:06:24.411Z,5.00
2023-05-19T09:11:32.887Z,5.20
2023-05-19T09:16:38.215Z,4.60
2023-05-19T09:21:44.639Z,4.72
2023-05-19T09:26:52.552Z,4.55
2023-05-19T09:32:01.146Z,4.53
2023-05-19T09:37:06.377Z,5.22
2023-05-19T09:42:14.142Z,4.50
2023-05-19T09:47:19.476Z,4.93
2023-05-19T09:52:25.231Z,5.07
2023-05-19T09:57:37.314Z,5.22
2023-05-19T10:02:44.961Z,4.80
2023-05-19T10:07:51.736Z,4.97
2023-05-19T10:12:59.762Z,4.20
2023-05-19T10:18:06.568Z,4.65
2023-05-19T10:23:11.721Z,4.38
2023-05-19T10:28:21.399Z,4.55
2023-05-19T10:33:35.482Z,4.72
2023-05-19T10:38:46.349Z,5.38
2023-05-19T10:43:59.476Z,5.45
2023-05-19T10:49:04.624Z,5.35
2023-05-19T10:54:14.374Z,5.13
2023-05-19T10:59:41.090Z,4.68
2023-05-19T11:04:51.837Z,4.97
2023-05-19T11:09:57.485Z,4.00
2023-05-19T11:15:08.027Z,4.70
2023-05-19T11:20:24.609Z,4.82
2023-05-19T11:25:44.668Z,5.05
2023-05-19T11:30:52.794Z,5.00
2023-05-19T11:36:03.278Z,5.13
2023-05-19T11:41:08.600Z,4.38
2023-05-19T11:46:16.946Z,5.20
2023-05-19T11:51:24.866Z,4.23
2023-05-19T11:56:30.108Z,5.30
2023-05-19T12:01:38.319Z,3.95
2023-05-19T12:06:43.916Z,5.53
2023-05-19T12:11:49.421Z,7.18
2023-05-19T12:16:57.420Z,5.70
2023-05-19T12:22:04.195Z,4.80
2023-05-19T12:27:13.947Z,5.60
2023-05-19T12:32:21.941Z,4.65
2023-05-19T12:37:30.495Z,4.93
2023-05-19T12:42:36.082Z,4.47
2023-05-19T12:47:44.203Z,4.10
2023-05-19T12:52:52.248Z,4.83
2023-05-19T12:57:58.531Z,3.47
2023-05-19T13:03:08.104Z,4.35
2023-05-19T13:08:14.257Z,3.75
2023-05-19T13:13:19.697Z,4.70
2023-05-19T13:18:27.931Z,4.40
2023-05-19T13:23:33.077Z,5.00
2023-05-19T13:28:38.161Z,4.82
2023-05-19T13:33:45.928Z,4.55
2023-05-19T13:38:51.231Z,4.60
2023-05-19T13:43:56.384Z,4.90
2023-05-19T13:49:04.227Z,4.30
2023-05-19T13:54:09.337Z,4.57
2023-05-19T13:59:14.484Z,4.65
2023-05-19T14:04:24.084Z,4.55
2023-05-19T14:09:29.981Z,4.78
2023-05-19T14:14:35.562Z,4.90
2023-05-19T14:19:43.471Z,4.88
2023-05-19T14:24:48.952Z,4.95
2023-05-19T14:29:54.431Z,5.40
2023-05-19T14:35:09.802Z,4.93
2023-05-19T14:40:16.116Z,5.22
2023-05-19T14:45:21.559Z,4.78
2023-05-19T14:50:48.583Z,5.10
2023-05-19T14:55:53.910Z,5.82
2023-05-19T15:01:01.166Z,6.43
2023-05-19T15:06:14.448Z,6.75
2023-05-19T15:11:19.735Z,6.25
2023-05-19T15:16:24.910Z,7.53
2023-05-19T15:21:32.921Z,7.63
2023-05-19T15:26:38.160Z,8.88
2023-05-19T15:31:46.069Z,8.10
2023-05-19T15:36:54.149Z,9.13
2023-05-19T15:41:59.337Z,9.27
2023-05-19T15:47:04.491Z,8.88
2023-05-19T15:52:15.601Z,8.82
2023-05-19T15:57:20.965Z,12.77
2023-05-19T16:02:35.432Z,14.55
2023-05-19T16:07:43.240Z,8.68
2023-05-19T16:12:48.351Z,12.90
2023-05-19T16:17:57.516Z,8.93
2023-05-19T16:28:16.384Z,8.82
2023-05-19T16:33:26.688Z,9.95
2023-05-19T16:38:34.516Z,9.57
2023-05-19T16:43:42.963Z,8.75
2023-05-19T16:48:48.079Z,9.37
2023-05-19T16:53:57.943Z,8.23
2023-05-19T16:59:03.372Z,8.57
2023-05-19T17:04:10.116Z,8.60
2023-05-19T17:09:25.362Z,10.05
2023-05-19T17:14:48.350Z,11.13
2023-05-19T17:19:56.983Z,11.20
2023-05-19T17:25:17.911Z,11.57
2023-05-19T17:30:49.387Z,11.55
2023-05-19T17:36:50.884Z,10.43
2023-05-19T17:47:19.941Z,10.38
2023-05-19T17:52:26.007Z,12.32
2023-05-19T17:57:35.267Z,10.60
2023-05-19T18:02:43.358Z,11.35
2023-05-19T18:07:49.181Z,10.25
2023-05-19T18:12:57.307Z,10.82
2023-05-19T18:18:03.534Z,10.38
2023-05-19T18:23:09.156Z,11.23
2023-05-19T18:28:17.295Z,10.90
2023-05-19T18:33:25.910Z,11.98
2023-05-19T18:43:40.485Z,11.55
2023-05-19T18:48:45.972Z,10.07
2023-05-19T18:53:51.719Z,11.10
2023-05-19T18:59:00.151Z,11.80
2023-05-19T19:04:10.868Z,11.27
2023-05-19T19:09:16.862Z,11.18
2023-05-19T19:14:24.847Z,10.90
2023-05-19T19:19:35.653Z,11.88
2023-05-19T19:24:43.376Z,11.88
2023-05-19T19:29:51.315Z,11.90
2023-05-19T19:34:56.391Z,11.48
2023-05-19T19:40:02.879Z,11.90
2023-05-19T19:45:14.771Z,11.80
2023-05-19T19:50:20.967Z,12.00
2023-05-19T19:55:26.156Z,10.73
2023-05-19T20:00:34.323Z,11.10
2023-05-19T20:05:40.834Z,11.10
2023-05-19T20:10:45.954Z,10.85
2023-05-19T20:15:54.198Z,11.73
2023-05-19T20:20:59.546Z,12.05
2023-05-19T20:31:17.895Z,14.23
2023-05-19T20:36:23.107Z,12.57
2023-05-19T20:41:28.546Z,10.77
2023-05-19T20:46:36.538Z,11.77
2023-05-19T20:51:41.972Z,12.45
2023-05-19T20:56:47.171Z,12.40
2023-05-19T21:01:54.989Z,11.45
2023-05-19T21:07:00.172Z,11.35
2023-05-19T21:12:05.628Z,11.98
2023-05-19T21:17:14.060Z,13.27
2023-05-19T21:22:19.340Z,12.68
2023-05-19T21:27:24.782Z,12.02
2023-05-19T21:32:34.828Z,26.92
2023-05-19T21:37:40.178Z,13.18
2023-05-19T21:42:45.436Z,12.18
2023-05-19T21:47:53.296Z,12.65
2023-05-19T21:52:58.613Z,13.77
2023-05-19T21:58:04.178Z,13.25
2023-05-19T22:03:12.838Z,12.80
2023-05-19T22:08:18.430Z,13.00
2023-05-19T22:13:24.058Z,12.68
2023-05-19T22:18:31.871Z,12.77
2023-05-19T22:23:37.381Z,13.10
2023-05-19T22:34:53.027Z,15.43
2023-05-19T22:40:29.932Z,14.40
2023-05-19T22:45:44.291Z,14.15
2023-05-19T22:50:52.216Z,14.68
2023-05-19T22:55:57.594Z,14.43
2023-05-19T23:01:03.958Z,12.25
2023-05-19T23:06:13.998Z,14.35
2023-05-19T23:11:22.326Z,12.88
2023-05-19T23:16:27.859Z,13.30
2023-05-19T23:21:55.980Z,13.57
2023-05-19T23:27:01.309Z,13.13
2023-05-19T23:32:08.058Z,12.82
2023-05-19T23:37:16.166Z,13.38
2023-05-19T23:42:21.398Z,13.80
2023-05-19T23:47:26.640Z,15.23
2023-05-19T23:52:34.994Z,15.05
2023-05-19T23:57:40.379Z,15.35
